Cliff Island, Maine
Current Conditions -  °F | °C
As of 12:51 PM on Thursday 27 Nov 2014 (Local Time) from KPWM Reporting Station
Broken Clouds Broken Clouds  
Wind Chill: 30°   Ceiling: 7500
Heat Index: 36°   Visibility: 10mi
Dew Point: 26°   Wind: 8mph
Humidity: 67%   Direction: 320°NW
Pressure: 29.93"   Gusts: NA
Location:  43.7°N, 70.11°W
Report Text: KPWM 271751Z 32007KT 10SM FEW021 BKN075 02/M03 A2993 RMK AO2 SLP137 T00221033 10022 20000 51010 $
Loading
Personal Weather Stations






























Interactive Weather Map New forecast layout! Learn more

10-Day Weather Forecast

Advertisements
Track Severe Weather on mobile